Time;durP1;ratioP1;P1;durP2;ratioP2;P2;SDS_P1;SDS_P2;PMS_P1;PMS_P2;Temp;Humidity;BMP_temperature;BMP_pressure;BME280_temperature;BME280_humidity;BME280_pressure;Samples;Min_cycle;Max_cycle;Signal;HPM_P1;HPM_P2
2023/12/14 00:01:20;;;;;;;0.90;0.90;;;-6.90;99.90;;;;;;5069868;28;20584;-69
2023/12/14 00:03:45;;;;;;;0.80;0.80;;;-7.00;99.90;;;;;;5096557;28;20569;-70
2023/12/14 00:06:13;;;;;;;0.90;0.90;;;-7.00;99.90;;;;;;5110617;28;20706;-69
2023/12/14 00:08:39;;;;;;;0.90;0.90;;;-7.10;99.90;;;;;;5110567;28;20219;-68
2023/12/14 00:11:05;;;;;;;0.85;0.85;;;-7.20;99.90;;;;;;5110259;28;20709;-67
2023/12/14 00:13:31;;;;;;;0.90;0.90;;;-7.20;99.90;;;;;;5109968;28;20203;-68
2023/12/14 00:15:57;;;;;;;0.88;0.88;;;-7.30;99.90;;;;;;5110270;28;20305;-67
2023/12/14 00:18:23;;;;;;;1.10;1.10;;;-7.30;99.90;;;;;;5110082;28;20262;-70
2023/12/14 00:20:48;;;;;;;0.83;0.83;;;-7.40;99.90;;;;;;5109979;28;20615;-67
2023/12/14 00:23:14;;;;;;;0.90;0.90;;;-7.30;99.90;;;;;;5091860;28;20196;-68
2023/12/14 00:25:40;;;;;;;0.90;0.90;;;-7.30;99.90;;;;;;5089708;28;20241;-67
2023/12/14 00:28:05;;;;;;;0.80;0.80;;;-7.30;99.90;;;;;;5071368;28;20307;-67
2023/12/14 00:30:31;;;;;;;0.90;0.90;;;-7.30;99.90;;;;;;5071129;28;20245;-68
2023/12/14 00:32:56;;;;;;;0.80;0.80;;;-7.30;99.90;;;;;;5089354;28;20261;-67
2023/12/14 00:35:22;;;;;;;0.80;0.80;;;-7.30;99.90;;;;;;5089453;28;20192;-66
2023/12/14 00:37:48;;;;;;;0.80;0.80;;;-7.30;99.90;;;;;;5070929;28;20196;-68
2023/12/14 00:40:13;;;;;;;0.90;0.90;;;-7.30;99.90;;;;;;5089398;28;20192;-67
2023/12/14 00:42:39;;;;;;;0.90;0.90;;;-7.40;99.90;;;;;;5089416;28;20265;-67
2023/12/14 00:45:05;;;;;;;0.80;0.80;;;-7.40;99.90;;;;;;5089360;28;20584;-68
2023/12/14 00:47:30;;;;;;;0.90;0.90;;;-7.40;99.90;;;;;;5088989;28;20199;-66
2023/12/14 00:49:56;;;;;;;0.80;0.80;;;-7.30;99.90;;;;;;5089544;28;20697;-67
2023/12/14 00:52:22;;;;;;;0.90;0.90;;;-7.30;99.90;;;;;;5089086;28;20200;-66
2023/12/14 00:54:48;;;;;;;0.90;0.90;;;-7.30;99.90;;;;;;5087608;28;20568;-66
2023/12/14 00:57:13;;;;;;;1.00;1.00;;;-7.40;99.90;;;;;;5069017;28;20642;-66
2023/12/14 00:59:40;;;;;;;0.90;0.90;;;-7.40;99.90;;;;;;5089514;28;20246;-70
2023/12/14 01:02:06;;;;;;;0.80;0.80;;;-7.40;99.90;;;;;;5108631;28;20225;-69
2023/12/14 01:04:32;;;;;;;0.90;0.90;;;-7.40;99.90;;;;;;5109337;28;20225;-69
2023/12/14 01:06:57;;;;;;;2.70;1.97;;;-7.40;99.90;;;;;;5109417;28;20195;-69
2023/12/14 01:09:23;;;;;;;0.90;0.90;;;-7.40;99.90;;;;;;5090944;28;20196;-69
2023/12/14 01:11:49;;;;;;;0.90;0.90;;;-7.50;99.90;;;;;;5109165;28;20196;-69
2023/12/14 01:14:14;;;;;;;0.90;0.90;;;-7.50;99.90;;;;;;5109337;28;20196;-69
2023/12/14 01:16:40;;;;;;;0.90;0.90;;;-7.50;99.90;;;;;;5109098;28;20215;-69
2023/12/14 01:19:06;;;;;;;0.90;0.90;;;-7.60;99.90;;;;;;5079611;28;20212;-69
2023/12/14 01:21:34;;;;;;;0.90;0.90;;;-7.60;99.90;;;;;;5068583;28;20234;-68
2023/12/14 01:24:00;;;;;;;0.90;0.90;;;-7.60;99.90;;;;;;5068864;28;20606;-69
2023/12/14 01:26:26;;;;;;;0.90;0.90;;;-7.50;99.90;;;;;;5064316;28;20204;-69
2023/12/14 01:28:53;;;;;;;0.90;0.90;;;-7.50;99.90;;;;;;5070648;28;20246;-69
2023/12/14 01:31:18;;;;;;;0.90;0.90;;;-7.60;99.90;;;;;;5088749;28;20188;-69
2023/12/14 01:33:45;;;;;;;0.90;0.90;;;-7.50;99.90;;;;;;5088689;28;20199;-68
2023/12/14 01:36:11;;;;;;;1.00;1.00;;;-7.60;99.90;;;;;;5088884;28;20278;-69
2023/12/14 01:38:37;;;;;;;0.90;0.90;;;-7.50;99.90;;;;;;5088781;28;20356;-70
2023/12/14 01:41:03;;;;;;;1.47;1.37;;;-7.60;99.90;;;;;;5088558;28;20209;-69
2023/12/14 01:43:29;;;;;;;0.83;0.83;;;-7.60;99.90;;;;;;5088430;28;20703;-69
2023/12/14 01:45:55;;;;;;;0.83;0.83;;;-7.60;99.90;;;;;;5089063;28;20204;-68
2023/12/14 01:48:21;;;;;;;0.80;0.80;;;-7.60;99.90;;;;;;5070417;28;20192;-69
2023/12/14 01:50:46;;;;;;;0.90;0.90;;;-7.60;99.90;;;;;;5070736;28;20606;-69
2023/12/14 01:53:12;;;;;;;1.00;1.00;;;-7.70;99.90;;;;;;5088658;28;20192;-69
2023/12/14 01:55:38;;;;;;;0.82;0.82;;;-7.70;99.90;;;;;;5096451;28;20219;-69
2023/12/14 01:58:03;;;;;;;0.90;0.90;;;-7.70;99.90;;;;;;5109034;28;20192;-69
2023/12/14 02:01:03;;;;;;;0.83;0.83;;;-7.70;99.90;;;;;;5108934;28;20196;-70
2023/12/14 02:03:29;;;;;;;0.93;0.93;;;-7.80;99.90;;;;;;5108758;28;20207;-69
2023/12/14 02:05:55;;;;;;;1.00;1.00;;;-7.90;99.90;;;;;;5108698;28;20192;-69
2023/12/14 02:08:21;;;;;;;1.00;1.00;;;-7.90;99.90;;;;;;5108478;28;20187;-69
2023/12/14 02:10:48;;;;;;;1.00;1.00;;;-8.00;99.90;;;;;;5109159;28;20199;-69
2023/12/14 02:13:13;;;;;;;0.90;0.90;;;-8.00;99.90;;;;;;5111006;28;20195;-70
2023/12/14 02:15:39;;;;;;;0.90;0.90;;;-8.10;99.90;;;;;;5095157;28;20226;-69
2023/12/14 02:18:05;;;;;;;0.90;0.90;;;-8.10;99.90;;;;;;5073822;28;20208;-69
2023/12/14 02:20:30;;;;;;;0.85;0.85;;;-8.20;99.90;;;;;;5091936;28;20245;-69
2023/12/14 02:22:56;;;;;;;0.90;0.90;;;-8.30;99.90;;;;;;5074015;28;20204;-69
2023/12/14 02:25:23;;;;;;;0.90;0.90;;;-8.40;99.90;;;;;;5092085;28;20192;-69
2023/12/14 02:27:51;;;;;;;0.90;0.90;;;-8.50;99.90;;;;;;5091234;28;20447;-69
2023/12/14 02:30:17;;;;;;;1.00;1.00;;;-8.60;99.90;;;;;;5073895;28;20226;-69
2023/12/14 02:32:43;;;;;;;0.90;0.90;;;-8.60;99.90;;;;;;5091762;28;20763;-69
2023/12/14 02:35:09;;;;;;;0.90;0.90;;;-8.70;99.90;;;;;;5091695;28;20196;-69
2023/12/14 02:37:40;;;;;;;0.80;0.80;;;-8.70;99.90;;;;;;5091761;28;20538;-69
2023/12/14 02:40:07;;;;;;;0.97;0.97;;;-8.80;99.90;;;;;;5091441;28;20213;-69
2023/12/14 02:42:33;;;;;;;0.90;0.90;;;-8.90;99.90;;;;;;5073192;28;20299;-69
2023/12/14 02:44:59;;;;;;;0.90;0.90;;;-9.00;99.90;;;;;;5083449;28;20192;-68
2023/12/14 02:47:25;;;;;;;0.90;0.90;;;-9.10;99.90;;;;;;5089057;28;20275;-69
2023/12/14 02:49:50;;;;;;;1.00;1.00;;;-9.20;99.90;;;;;;5071326;28;20199;-69
2023/12/14 02:52:16;;;;;;;0.80;0.80;;;-9.30;99.90;;;;;;5093827;28;20595;-69
2023/12/14 02:54:42;;;;;;;0.90;0.90;;;-9.40;99.90;;;;;;5111532;28;20195;-69
2023/12/14 02:57:07;;;;;;;0.90;0.90;;;-9.50;99.90;;;;;;5093673;28;20716;-69
2023/12/14 02:59:33;;;;;;;0.90;0.90;;;-9.60;99.90;;;;;;5111898;28;20219;-69
2023/12/14 03:01:59;;;;;;;0.90;0.90;;;-9.70;99.90;;;;;;5111871;28;20226;-69
2023/12/14 03:04:25;;;;;;;0.90;0.90;;;-9.70;99.90;;;;;;5127372;27;20280;-69
2023/12/14 03:06:51;;;;;;;0.90;0.90;;;-9.80;99.90;;;;;;5111976;28;20296;-69
2023/12/14 03:09:18;;;;;;;0.90;0.90;;;-9.80;99.90;;;;;;5111950;28;20195;-69
2023/12/14 03:11:44;;;;;;;0.90;0.90;;;-9.80;99.90;;;;;;5095538;28;20259;-69
2023/12/14 03:14:10;;;;;;;0.80;0.80;;;-9.80;99.90;;;;;;5091221;28;20625;-69
2023/12/14 03:16:36;;;;;;;0.90;0.90;;;-9.90;99.90;;;;;;5090978;28;20214;-69
2023/12/14 03:19:03;;;;;;;1.00;1.00;;;-9.90;99.90;;;;;;5090989;28;20660;-69
2023/12/14 03:21:29;;;;;;;0.90;0.90;;;-9.90;99.90;;;;;;5091002;28;20590;-69
2023/12/14 03:23:54;;;;;;;0.90;0.90;;;-9.90;99.90;;;;;;5089996;28;20233;-69
2023/12/14 03:26:20;;;;;;;0.90;0.90;;;-10.00;99.90;;;;;;5090728;28;20215;-69
2023/12/14 03:28:46;;;;;;;0.90;0.90;;;-10.00;99.90;;;;;;5090517;28;20199;-69
2023/12/14 03:31:12;;;;;;;0.90;0.90;;;-10.00;99.90;;;;;;5091010;28;20217;-69
2023/12/14 03:33:38;;;;;;;1.00;1.00;;;-10.10;99.90;;;;;;5090533;28;20192;-69
2023/12/14 03:36:05;;;;;;;1.00;1.00;;;-10.10;99.90;;;;;;5090930;28;20347;-69
2023/12/14 03:38:31;;;;;;;0.90;0.90;;;-10.20;99.90;;;;;;5090555;28;20629;-69
2023/12/14 03:40:57;;;;;;;0.80;0.80;;;-10.20;99.90;;;;;;5090348;28;20341;-69
2023/12/14 03:43:23;;;;;;;0.90;0.90;;;-10.20;99.90;;;;;;5090599;28;20283;-69
2023/12/14 03:45:48;;;;;;;0.90;0.90;;;-10.30;99.90;;;;;;5070196;28;20205;-69
2023/12/14 03:48:14;;;;;;;0.90;0.90;;;-10.30;99.90;;;;;;5079231;28;20196;-70
2023/12/14 03:50:40;;;;;;;0.90;0.90;;;-10.30;99.90;;;;;;5090443;28;20196;-69
2023/12/14 03:53:06;;;;;;;0.90;0.90;;;-10.40;99.90;;;;;;5090415;28;20184;-69
2023/12/14 03:55:33;;;;;;;0.90;0.90;;;-10.40;99.90;;;;;;5090062;28;20755;-69
2023/12/14 03:57:58;;;;;;;0.90;0.90;;;-10.50;99.90;;;;;;5081055;28;20709;-69
2023/12/14 04:00:24;;;;;;;1.00;1.00;;;-10.60;99.90;;;;;;5090681;28;20200;-66
2023/12/14 04:02:49;;;;;;;0.90;0.90;;;-10.60;99.90;;;;;;5087740;28;20200;-66
2023/12/14 04:05:15;;;;;;;0.83;0.83;;;-10.60;99.90;;;;;;5090105;28;20190;-67
2023/12/14 04:07:41;;;;;;;0.90;0.90;;;-10.60;99.90;;;;;;5076458;28;20203;-69
2023/12/14 04:10:08;;;;;;;0.90;0.90;;;-10.60;99.90;;;;;;5070171;28;20201;-66
2023/12/14 04:12:35;;;;;;;0.90;0.90;;;-10.70;99.90;;;;;;5069439;28;20250;-67
2023/12/14 04:15:00;;;;;;;0.90;0.90;;;-10.70;99.90;;;;;;5082428;28;20227;-65
2023/12/14 04:17:26;;;;;;;1.00;1.00;;;-10.80;99.90;;;;;;5089497;28;20242;-66
2023/12/14 04:19:51;;;;;;;0.90;0.90;;;-10.90;99.90;;;;;;5089973;28;20678;-68
2023/12/14 04:22:17;;;;;;;0.90;0.90;;;-11.00;99.90;;;;;;5089841;28;20288;-66
2023/12/14 04:24:43;;;;;;;0.90;0.90;;;-11.10;99.90;;;;;;5089411;28;20275;-66
2023/12/14 04:27:08;;;;;;;0.90;0.90;;;-11.10;99.90;;;;;;5089638;28;20219;-67
2023/12/14 04:29:34;;;;;;;0.90;0.90;;;-11.20;99.90;;;;;;5089514;28;20269;-66
2023/12/14 04:32:00;;;;;;;0.90;0.90;;;-11.30;99.90;;;;;;5089345;28;20245;-66
2023/12/14 04:34:26;;;;;;;0.90;0.90;;;-11.40;99.90;;;;;;5089194;28;20194;-66
2023/12/14 04:36:52;;;;;;;0.90;0.90;;;-11.50;99.90;;;;;;5089533;28;20226;-65
2023/12/14 04:39:18;;;;;;;0.90;0.90;;;-11.60;99.90;;;;;;5089571;28;20192;-68
2023/12/14 04:41:44;;;;;;;1.00;1.00;;;-11.70;99.90;;;;;;5071417;28;20197;-69
2023/12/14 04:44:10;;;;;;;0.90;0.90;;;-11.70;99.90;;;;;;5081642;28;20257;-68
2023/12/14 04:46:36;;;;;;;0.97;0.97;;;-11.80;99.90;;;;;;5109831;28;20305;-69
2023/12/14 04:49:05;;;;;;;0.90;0.90;;;-11.80;99.90;;;;;;5110158;28;20306;-68
2023/12/14 04:51:31;;;;;;;0.90;0.90;;;-11.80;99.90;;;;;;5109671;28;21069;-68
2023/12/14 04:53:57;;;;;;;1.00;1.00;;;-11.80;99.90;;;;;;5109924;28;20567;-69
2023/12/14 04:56:23;;;;;;;1.00;1.00;;;-11.80;99.90;;;;;;5109235;28;20227;-69
2023/12/14 04:58:48;;;;;;;1.00;1.00;;;-11.90;99.90;;;;;;5109821;28;20191;-69
2023/12/14 05:01:14;;;;;;;0.90;0.90;;;-11.90;99.90;;;;;;5109516;28;20208;-69
2023/12/14 05:03:40;;;;;;;1.00;1.00;;;-12.00;99.90;;;;;;5097843;28;20568;-68
2023/12/14 05:06:07;;;;;;;1.10;1.10;;;-12.00;99.90;;;;;;5088983;28;20550;-68
2023/12/14 05:08:32;;;;;;;1.00;1.00;;;-12.00;99.90;;;;;;5088823;28;20199;-68
2023/12/14 05:10:58;;;;;;;0.90;0.90;;;-12.00;99.90;;;;;;5088868;28;20203;-68
2023/12/14 05:13:24;;;;;;;0.90;0.90;;;-12.00;99.90;;;;;;5088638;28;20197;-69
2023/12/14 05:15:51;;;;;;;1.00;1.00;;;-12.00;99.90;;;;;;5088820;28;20671;-68
2023/12/14 05:18:18;;;;;;;0.80;0.80;;;-12.00;99.90;;;;;;5089153;28;20192;-68
2023/12/14 05:20:45;;;;;;;0.90;0.90;;;-12.00;99.90;;;;;;5088462;28;20207;-68
2023/12/14 05:23:11;;;;;;;0.90;0.90;;;-12.10;99.90;;;;;;5089051;28;20195;-69
2023/12/14 05:25:37;;;;;;;1.00;1.00;;;-12.10;99.90;;;;;;5088754;28;20662;-69
2023/12/14 05:28:03;;;;;;;1.00;1.00;;;-12.20;99.90;;;;;;5088809;28;20196;-68
2023/12/14 05:30:29;;;;;;;0.90;0.90;;;-12.20;99.90;;;;;;5088638;28;20188;-68
2023/12/14 05:32:55;;;;;;;0.90;0.90;;;-12.20;99.90;;;;;;5088890;28;20196;-68
2023/12/14 05:35:21;;;;;;;0.97;0.97;;;-12.20;99.90;;;;;;5070431;28;20211;-69
2023/12/14 05:37:47;;;;;;;0.97;0.97;;;-12.20;99.90;;;;;;5054674;28;20259;-68
2023/12/14 05:40:12;;;;;;;1.00;1.00;;;-12.20;99.90;;;;;;5077553;28;20203;-68
2023/12/14 05:42:38;;;;;;;0.90;0.90;;;-12.20;99.90;;;;;;5109000;28;20573;-68
2023/12/14 05:45:05;;;;;;;0.90;0.90;;;-12.10;99.90;;;;;;5108843;28;20215;-68
2023/12/14 05:47:32;;;;;;;0.97;0.97;;;-12.00;99.90;;;;;;5110294;28;20195;-68
2023/12/14 05:49:59;;;;;;;0.90;0.90;;;-12.00;99.90;;;;;;5113152;28;20236;-68
2023/12/14 05:52:24;;;;;;;0.90;0.90;;;-11.90;99.90;;;;;;5113003;28;20187;-69
2023/12/14 05:54:50;;;;;;;0.90;0.90;;;-11.80;99.90;;;;;;5125666;27;20263;-70
2023/12/14 05:57:16;;;;;;;1.00;1.00;;;-11.70;99.90;;;;;;5092679;28;20203;-69
2023/12/14 05:59:42;;;;;;;1.00;1.00;;;-11.60;99.90;;;;;;5073935;28;20567;-69
2023/12/14 06:02:08;;;;;;;0.90;0.90;;;-11.50;99.90;;;;;;5052290;28;20248;-69
2023/12/14 06:04:34;;;;;;;0.90;0.90;;;-11.40;99.90;;;;;;5052332;28;20661;-69
2023/12/14 06:06:59;;;;;;;0.90;0.90;;;-11.40;99.90;;;;;;5060165;28;20200;-69
2023/12/14 06:09:33;;;;;;;1.00;1.00;;;-11.30;99.90;;;;;;5072034;28;20189;-69
2023/12/14 06:12:02;;;;;;;0.90;0.90;;;-11.20;99.90;;;;;;5072007;28;20605;-69
2023/12/14 06:14:29;;;;;;;0.90;0.90;;;-11.10;99.90;;;;;;5071804;28;20204;-69
2023/12/14 06:16:54;;;;;;;1.00;1.00;;;-11.00;99.90;;;;;;5072052;28;20548;-69
2023/12/14 06:19:20;;;;;;;0.90;0.90;;;-11.00;99.90;;;;;;5071852;28;20287;-68
2023/12/14 06:21:46;;;;;;;0.93;0.93;;;-11.00;99.90;;;;;;5071564;28;20208;-67
2023/12/14 06:24:12;;;;;;;0.90;0.90;;;-10.90;99.90;;;;;;5071672;28;20246;-68
2023/12/14 06:26:44;;;;;;;1.00;1.00;;;-10.90;99.90;;;;;;5071445;28;20550;-68
2023/12/14 06:29:11;;;;;;;0.90;0.90;;;-10.80;99.90;;;;;;5071644;28;20542;-69
2023/12/14 06:31:40;;;;;;;1.00;1.00;;;-10.80;99.90;;;;;;5071569;28;20219;-68
2023/12/14 06:34:06;;;;;;;1.10;1.10;;;-10.80;99.90;;;;;;5037580;28;20599;-67
2023/12/14 06:36:32;;;;;;;0.90;0.90;;;-10.70;99.90;;;;;;5061629;28;20207;-69
2023/12/14 06:38:59;;;;;;;1.00;1.00;;;-10.70;99.90;;;;;;5092121;28;20204;-68
2023/12/14 06:41:25;;;;;;;0.90;0.90;;;-10.70;99.90;;;;;;5061887;28;20540;-68
2023/12/14 06:43:52;;;;;;;0.90;0.90;;;-10.70;99.90;;;;;;5051488;28;20212;-67
2023/12/14 06:46:18;;;;;;;0.90;0.90;;;-10.70;99.90;;;;;;5051461;28;20206;-68
2023/12/14 06:48:44;;;;;;;1.00;1.00;;;-10.60;99.90;;;;;;5051405;28;20202;-68
2023/12/14 06:51:10;;;;;;;1.10;1.10;;;-10.60;99.90;;;;;;5051168;28;20208;-68
2023/12/14 06:53:38;;;;;;;1.00;1.00;;;-10.60;99.90;;;;;;5051150;28;20208;-68
2023/12/14 06:56:04;;;;;;;1.00;1.00;;;-10.60;99.90;;;;;;5063892;28;20256;-68
2023/12/14 06:58:31;;;;;;;0.90;0.90;;;-10.60;99.90;;;;;;5071182;28;20229;-68
2023/12/14 07:00:57;;;;;;;1.00;1.00;;;-10.60;99.90;;;;;;5071460;28;20197;-69
2023/12/14 07:03:22;;;;;;;1.10;1.10;;;-10.70;99.90;;;;;;5080422;28;20201;-69
2023/12/14 07:05:48;;;;;;;1.63;1.53;;;-10.70;99.90;;;;;;5091243;28;20188;-69
2023/12/14 07:08:14;;;;;;;0.93;0.93;;;-10.70;99.90;;;;;;5091244;28;20192;-69
2023/12/14 07:10:42;;;;;;;0.87;0.87;;;-10.80;99.90;;;;;;5091248;28;20271;-69
2023/12/14 07:13:08;;;;;;;0.90;0.90;;;-10.80;99.90;;;;;;5091158;28;20279;-69
2023/12/14 07:15:34;;;;;;;0.90;0.90;;;-10.70;99.90;;;;;;5090983;28;20739;-69
2023/12/14 07:17:59;;;;;;;0.90;0.90;;;-10.70;99.90;;;;;;5091098;28;20188;-69
2023/12/14 07:20:25;;;;;;;0.90;0.90;;;-10.70;99.90;;;;;;5072298;28;20210;-69
2023/12/14 07:22:51;;;;;;;0.90;0.90;;;-10.70;99.90;;;;;;5091336;28;20691;-69
2023/12/14 07:25:16;;;;;;;1.00;1.00;;;-10.70;99.90;;;;;;5090901;28;20238;-69
2023/12/14 07:27:43;;;;;;;1.00;1.00;;;-10.70;99.90;;;;;;5072185;28;20639;-69
2023/12/14 07:30:09;;;;;;;1.10;1.10;;;-10.70;99.90;;;;;;5076105;28;20652;-69
2023/12/14 07:32:35;;;;;;;1.00;1.00;;;-10.70;99.90;;;;;;5070442;28;20196;-69
2023/12/14 07:35:01;;;;;;;1.00;1.00;;;-10.70;99.90;;;;;;5070556;28;20729;-69
2023/12/14 07:37:26;;;;;;;1.30;1.27;;;-10.60;99.90;;;;;;5052175;28;20201;-69
2023/12/14 07:39:52;;;;;;;1.00;1.00;;;-10.50;99.90;;;;;;5072190;28;20200;-69
2023/12/14 07:42:20;;;;;;;0.90;0.90;;;-10.50;99.90;;;;;;5090510;28;20628;-69
2023/12/14 07:44:46;;;;;;;1.00;1.00;;;-10.50;99.90;;;;;;5090590;28;20294;-69
2023/12/14 07:47:12;;;;;;;1.00;1.00;;;-10.50;99.90;;;;;;5090416;28;20246;-69
2023/12/14 07:49:38;;;;;;;0.90;0.90;;;-10.50;99.90;;;;;;5090370;28;20192;-69
2023/12/14 07:52:04;;;;;;;1.00;1.00;;;-10.50;99.90;;;;;;5090138;28;20196;-69
2023/12/14 07:54:29;;;;;;;0.90;0.90;;;-10.40;99.90;;;;;;5090265;28;20249;-69
2023/12/14 07:56:55;;;;;;;0.93;0.93;;;-10.40;99.90;;;;;;5070025;28;20221;-69
2023/12/14 07:59:21;;;;;;;1.00;1.00;;;-10.50;99.90;;;;;;5070004;28;20205;-69
2023/12/14 08:01:47;;;;;;;1.07;1.07;;;-10.50;99.90;;;;;;5069870;28;20209;-69
2023/12/14 08:04:12;;;;;;;1.00;1.00;;;-10.50;99.90;;;;;;5070132;28;20197;-69
2023/12/14 08:06:42;;;;;;;1.10;1.10;;;-10.40;99.90;;;;;;5069907;28;20197;-69
2023/12/14 08:09:08;;;;;;;0.90;0.90;;;-10.40;99.90;;;;;;5069874;28;20193;-69
2023/12/14 08:11:34;;;;;;;2.80;2.40;;;-10.50;99.90;;;;;;5069336;28;20209;-69
2023/12/14 08:13:59;;;;;;;1.43;1.37;;;-10.50;99.90;;;;;;5069943;28;20220;-68
2023/12/14 08:16:25;;;;;;;1.00;1.00;;;-10.40;99.90;;;;;;5085103;28;20200;-68
2023/12/14 08:18:51;;;;;;;0.90;0.90;;;-10.40;99.90;;;;;;5069820;28;20265;-69
2023/12/14 08:21:18;;;;;;;1.00;1.00;;;-10.30;99.90;;;;;;5069729;28;20221;-69
2023/12/14 08:23:44;;;;;;;1.00;1.00;;;-10.30;99.90;;;;;;5069364;28;20197;-69
2023/12/14 08:26:12;;;;;;;0.90;0.90;;;-10.20;99.90;;;;;;5051123;28;20200;-68
2023/12/14 08:28:38;;;;;;;1.53;1.43;;;-10.10;99.90;;;;;;5069327;28;20188;-69
2023/12/14 08:31:04;;;;;;;0.90;0.90;;;-10.10;99.90;;;;;;5069659;28;20208;-69
2023/12/14 08:33:30;;;;;;;1.00;1.00;;;-10.00;99.90;;;;;;5080309;28;20216;-69
2023/12/14 08:35:56;;;;;;;1.00;1.00;;;-9.90;99.90;;;;;;5089815;28;20208;-69
2023/12/14 08:38:22;;;;;;;0.90;0.90;;;-9.90;99.90;;;;;;5089326;28;20200;-69
2023/12/14 08:40:48;;;;;;;1.00;1.00;;;-9.80;99.90;;;;;;5070116;28;20212;-69
2023/12/14 08:43:13;;;;;;;0.90;0.90;;;-9.80;99.90;;;;;;5049605;28;20288;-69
2023/12/14 08:45:39;;;;;;;0.90;0.90;;;-9.80;99.90;;;;;;5066225;28;20217;-69
2023/12/14 08:48:05;;;;;;;0.90;0.90;;;-9.70;99.90;;;;;;5063048;28;20202;-69
2023/12/14 08:50:31;;;;;;;0.90;0.90;;;-9.70;99.90;;;;;;5030900;28;20201;-69
2023/12/14 08:52:59;;;;;;;1.00;1.00;;;-9.60;99.90;;;;;;5048959;28;20287;-68
2023/12/14 08:55:26;;;;;;;0.90;0.90;;;-9.50;99.90;;;;;;5061937;28;20606;-68
2023/12/14 08:57:52;;;;;;;0.90;0.90;;;-9.50;99.90;;;;;;5070941;28;20230;-69
2023/12/14 09:00:18;;;;;;;0.90;0.90;;;-9.50;99.90;;;;;;5089357;28;20756;-69
2023/12/14 09:02:45;;;;;;;1.00;1.00;;;-9.30;99.90;;;;;;5089343;28;20236;-69
2023/12/14 09:05:13;;;;;;;1.10;1.10;;;-9.30;99.90;;;;;;5071054;28;20675;-69
2023/12/14 09:07:39;;;;;;;1.00;1.00;;;-9.30;99.90;;;;;;5088920;28;20275;-69
2023/12/14 09:10:06;;;;;;;0.90;0.90;;;-9.20;99.90;;;;;;5089147;28;20282;-69
2023/12/14 09:12:33;;;;;;;1.10;1.10;;;-9.20;99.90;;;;;;5088653;28;20698;-69
2023/12/14 09:14:59;;;;;;;0.90;0.90;;;-9.10;99.90;;;;;;5070463;28;20203;-69
2023/12/14 09:17:25;;;;;;;0.90;0.90;;;-9.10;99.90;;;;;;5088867;28;20615;-69
2023/12/14 09:19:51;;;;;;;0.90;0.90;;;-9.10;99.90;;;;;;5089052;28;20204;-69
2023/12/14 09:22:17;;;;;;;0.90;0.90;;;-9.10;99.90;;;;;;5087976;28;20582;-67
2023/12/14 09:24:43;;;;;;;1.37;1.30;;;-9.10;99.90;;;;;;5089010;28;20223;-68
2023/12/14 09:27:08;;;;;;;1.00;1.00;;;-9.00;99.90;;;;;;5088794;28;20235;-69
2023/12/14 09:29:34;;;;;;;0.90;0.90;;;-8.90;99.90;;;;;;5088590;28;20242;-66
2023/12/14 09:32:00;;;;;;;1.00;1.00;;;-8.90;99.90;;;;;;5088619;28;20200;-67
2023/12/14 09:34:25;;;;;;;0.90;0.90;;;-8.70;99.90;;;;;;5107545;28;20214;-66
2023/12/14 09:36:52;;;;;;;1.00;1.00;;;-8.60;99.90;;;;;;5109149;28;20223;-66
2023/12/14 09:39:19;;;;;;;12.50;4.07;;;-8.50;99.90;;;;;;5109396;28;20565;-66
2023/12/14 09:41:46;;;;;;;5.17;2.23;;;-8.50;99.90;;;;;;5074110;28;20216;-65
2023/12/14 09:44:12;;;;;;;3.37;2.70;;;-8.40;99.90;;;;;;5073401;28;20667;-69
2023/12/14 09:46:38;;;;;;;0.90;0.90;;;-8.30;99.90;;;;;;5088511;28;20207;-67
2023/12/14 09:49:05;;;;;;;0.90;0.90;;;-8.30;99.90;;;;;;5088616;28;20196;-66
2023/12/14 09:51:31;;;;;;;1.00;1.00;;;-8.20;99.90;;;;;;5088242;28;20211;-67
2023/12/14 09:54:01;;;;;;;1.00;1.00;;;-8.10;99.90;;;;;;5088922;28;20510;-65
2023/12/14 09:56:27;;;;;;;1.07;1.07;;;-8.10;99.90;;;;;;5066446;28;20236;-67
2023/12/14 09:58:53;;;;;;;1.57;1.47;;;-8.00;99.90;;;;;;5087777;28;20230;-66
2023/12/14 10:01:26;;;;;;;2.20;1.77;;;-8.10;99.90;;;;;;5070172;28;20738;-67
2023/12/14 10:04:13;;;;;;;0.90;0.90;;;-8.10;99.90;;;;;;5088271;28;20200;-67
2023/12/14 10:06:40;;;;;;;1.65;1.55;;;-8.10;99.90;;;;;;5087157;28;20403;-67
2023/12/14 10:09:13;;;;;;;1.40;1.30;;;-8.10;99.90;;;;;;5088409;28;20567;-66
2023/12/14 10:11:39;;;;;;;0.80;0.80;;;-8.00;99.90;;;;;;5088201;28;20196;-66
2023/12/14 10:14:22;;;;;;;0.83;0.83;;;-8.00;99.90;;;;;;5088283;28;20273;-67
2023/12/14 10:16:49;;;;;;;0.90;0.90;;;-7.90;99.90;;;;;;5088360;28;20744;-67
2023/12/14 10:19:16;;;;;;;0.90;0.90;;;-7.90;99.90;;;;;;5071107;28;20893;-66
2023/12/14 10:21:42;;;;;;;1.00;1.00;;;-7.80;99.90;;;;;;5068015;28;20208;-66
2023/12/14 10:24:08;;;;;;;2.40;2.20;;;-7.70;99.90;;;;;;5068253;28;20211;-66
2023/12/14 10:26:33;;;;;;;1.50;1.40;;;-7.60;99.90;;;;;;5067822;28;20727;-66
2023/12/14 10:28:59;;;;;;;1.03;1.03;;;-7.70;99.90;;;;;;5076766;28;20222;-66
2023/12/14 10:31:26;;;;;;;0.90;0.90;;;-7.60;99.90;;;;;;5124228;28;20199;-69
2023/12/14 10:33:52;;;;;;;0.90;0.90;;;-7.60;99.90;;;;;;5110633;28;20199;-69
2023/12/14 10:36:24;;;;;;;2.30;1.97;;;-7.50;99.90;;;;;;5128230;27;20195;-68
2023/12/14 10:38:56;;;;;;;1.57;1.47;;;-7.50;99.90;;;;;;5094265;28;20237;-68
2023/12/14 10:41:22;;;;;;;1.00;1.00;;;-7.30;99.90;;;;;;5095400;28;20637;-69
2023/12/14 10:43:50;;;;;;;0.90;0.90;;;-7.20;99.90;;;;;;5092215;28;20571;-68
2023/12/14 10:46:16;;;;;;;0.90;0.90;;;-7.20;99.90;;;;;;5091985;28;20196;-68
2023/12/14 10:48:44;;;;;;;0.90;0.90;;;-7.10;99.90;;;;;;5091527;28;20218;-69
2023/12/14 10:51:12;;;;;;;0.83;0.83;;;-7.00;99.90;;;;;;5091791;28;20724;-68
2023/12/14 10:53:38;;;;;;;1.10;1.10;;;-6.90;99.90;;;;;;5091493;28;20200;-67
2023/12/14 10:56:09;;;;;;;0.90;0.90;;;-7.00;99.90;;;;;;5091562;28;20743;-69
2023/12/14 10:58:55;;;;;;;0.90;0.90;;;-6.90;99.90;;;;;;5073120;28;20253;-69
2023/12/14 11:01:25;;;;;;;0.90;0.90;;;-6.80;99.90;;;;;;5091547;28;20208;-69
2023/12/14 11:03:56;;;;;;;0.90;0.90;;;-6.70;99.90;;;;;;5091547;28;20188;-68
2023/12/14 11:06:24;;;;;;;2.10;2.00;;;-6.60;99.90;;;;;;5091350;28;20184;-68
2023/12/14 11:08:55;;;;;;;0.90;0.90;;;-6.50;99.90;;;;;;5091495;28;20234;-68
2023/12/14 11:11:21;;;;;;;1.00;1.00;;;-6.50;99.90;;;;;;5091098;28;20192;-69
2023/12/14 11:13:53;;;;;;;0.90;0.90;;;-6.50;99.90;;;;;;5087779;28;20242;-68
2023/12/14 11:16:23;;;;;;;0.90;0.90;;;-6.50;99.90;;;;;;5070802;28;20197;-68
2023/12/14 11:19:08;;;;;;;0.97;0.97;;;-6.40;99.90;;;;;;5070940;28;20729;-68
2023/12/14 11:21:34;;;;;;;0.80;0.80;;;-6.40;99.90;;;;;;5070507;28;20257;-69
2023/12/14 11:24:01;;;;;;;1.10;1.10;;;-6.40;99.90;;;;;;5071105;28;20695;-68
2023/12/14 11:26:28;;;;;;;0.70;0.70;;;-6.30;99.90;;;;;;5093230;28;20302;-69
2023/12/14 11:28:54;;;;;;;0.90;0.90;;;-6.30;99.90;;;;;;5111614;28;20184;-68
2023/12/14 11:31:20;;;;;;;0.80;0.80;;;-6.30;99.90;;;;;;5111287;28;20202;-69
2023/12/14 11:33:47;;;;;;;0.77;0.77;;;-6.30;99.90;;;;;;5111298;28;20187;-68
2023/12/14 11:36:13;;;;;;;4.93;1.90;;;-6.30;99.90;;;;;;5109957;28;20202;-68
2023/12/14 11:38:39;;;;;;;1.00;1.00;;;-6.20;99.90;;;;;;5090632;28;21513;-68
2023/12/14 11:41:05;;;;;;;0.80;0.80;;;-6.30;99.90;;;;;;5090563;28;20204;-69
2023/12/14 11:43:40;;;;;;;1.00;1.00;;;-6.20;99.90;;;;;;5090413;28;20707;-68
2023/12/14 11:46:06;;;;;;;0.97;0.97;;;-6.20;99.90;;;;;;5089823;28;20194;-69
2023/12/14 11:48:31;;;;;;;0.90;0.90;;;-6.30;99.90;;;;;;5090586;28;20196;-69
2023/12/14 11:50:57;;;;;;;0.90;0.90;;;-6.20;99.90;;;;;;5090750;28;20223;-68
2023/12/14 11:53:23;;;;;;;0.90;0.90;;;-6.20;99.90;;;;;;5090149;28;20207;-69
2023/12/14 11:55:49;;;;;;;0.77;0.77;;;-6.30;99.90;;;;;;5090294;28;20239;-69
2023/12/14 11:58:16;;;;;;;0.80;0.80;;;-6.30;99.90;;;;;;5090593;28;20188;-69
2023/12/14 12:00:41;;;;;;;1.00;1.00;;;-6.30;99.90;;;;;;5090391;28;20278;-69
2023/12/14 12:03:13;;;;;;;0.90;0.90;;;-6.20;99.90;;;;;;5089953;28;20295;-68
2023/12/14 12:05:40;;;;;;;0.90;0.90;;;-6.30;99.90;;;;;;5071802;28;20219;-69
2023/12/14 12:08:06;;;;;;;0.90;0.90;;;-6.40;99.90;;;;;;5090154;28;20188;-68
2023/12/14 12:10:33;;;;;;;0.80;0.80;;;-6.40;99.90;;;;;;5082925;28;20684;-69
2023/12/14 12:13:04;;;;;;;0.87;0.87;;;-6.40;99.90;;;;;;5051632;28;20231;-68
2023/12/14 12:15:31;;;;;;;0.80;0.80;;;-6.50;99.90;;;;;;5069833;28;20737;-68
2023/12/14 12:17:57;;;;;;;0.90;0.90;;;-6.50;99.90;;;;;;5069582;28;20275;-69
2023/12/14 12:20:23;;;;;;;0.90;0.90;;;-6.50;99.90;;;;;;5069845;28;20276;-69
2023/12/14 12:22:48;;;;;;;0.90;0.90;;;-6.50;99.90;;;;;;5095861;28;20212;-68
2023/12/14 12:25:14;;;;;;;0.90;0.90;;;-6.60;99.90;;;;;;5110371;28;20516;-69
2023/12/14 12:27:40;;;;;;;0.90;0.90;;;-6.60;99.90;;;;;;5110402;28;20206;-69
2023/12/14 12:30:07;;;;;;;0.90;0.90;;;-6.60;99.90;;;;;;5110179;28;20717;-69
2023/12/14 12:32:32;;;;;;;0.80;0.80;;;-6.60;99.90;;;;;;5089911;28;20238;-69
2023/12/14 12:34:58;;;;;;;0.90;0.90;;;-6.60;99.90;;;;;;5081292;28;20224;-69
2023/12/14 12:37:24;;;;;;;0.80;0.80;;;-6.60;99.90;;;;;;5089259;28;20206;-69
2023/12/14 12:39:50;;;;;;;0.90;0.90;;;-6.60;99.90;;;;;;5088978;28;20192;-69